createdAt,value
2022-07-28T00:01:33.197Z,5.95
2022-07-28T00:03:34.876Z,7.05
2022-07-28T00:05:36.766Z,5.07
2022-07-28T00:07:38.492Z,3.92
2022-07-28T00:09:40.211Z,1.88
2022-07-28T00:11:54.052Z,6.40
2022-07-28T00:13:56.667Z,6.78
2022-07-28T00:15:58.413Z,5.80
2022-07-28T00:18:00.627Z,7.65
2022-07-28T00:20:02.369Z,2.88
2022-07-28T00:22:04.201Z,3.03
2022-07-28T00:24:06.189Z,1.55
2022-07-28T00:26:09.340Z,3.85
2022-07-28T00:28:11.016Z,6.57
2022-07-28T00:30:12.962Z,3.05
2022-07-28T00:32:14.787Z,2.92
2022-07-28T00:34:17.220Z,1.83
2022-07-28T00:36:19.134Z,3.80
2022-07-28T00:38:26.402Z,1.90
2022-07-28T00:40:47.453Z,3.90
2022-07-28T00:42:49.098Z,6.45
2022-07-28T00:44:50.765Z,6.68
2022-07-28T00:46:52.494Z,3.35
2022-07-28T00:48:55.374Z,7.75
2022-07-28T00:50:57.553Z,4.45
2022-07-28T00:53:00.781Z,11.75
2022-07-28T00:55:04.441Z,3.58
2022-07-28T00:57:06.241Z,3.25
2022-07-28T00:59:07.971Z,7.82
2022-07-28T01:01:11.640Z,3.63
2022-07-28T01:03:13.562Z,4.55
2022-07-28T01:05:15.991Z,3.50
2022-07-28T01:07:32.752Z,2.05
2022-07-28T01:09:57.675Z,6.63
2022-07-28T01:12:18.424Z,4.05
2022-07-28T01:14:36.659Z,2.00
2022-07-28T01:16:47.558Z,1.88
2022-07-28T01:18:54.200Z,5.68
2022-07-28T01:21:28.028Z,2.55
2022-07-28T01:23:32.745Z,3.53
2022-07-28T01:26:06.558Z,3.30
2022-07-28T01:28:42.284Z,3.13
2022-07-28T01:30:47.512Z,3.65
2022-07-28T01:32:58.189Z,4.03
2022-07-28T01:34:59.891Z,4.20
2022-07-28T01:37:11.310Z,4.43
2022-07-28T01:39:15.009Z,5.25
2022-07-28T01:41:20.067Z,3.30
2022-07-28T01:43:24.983Z,7.75
2022-07-28T01:45:27.408Z,6.57
2022-07-28T01:47:31.555Z,2.63
2022-07-28T01:49:34.444Z,5.13
2022-07-28T01:51:37.785Z,5.18
2022-07-28T01:53:41.263Z,3.90
2022-07-28T01:55:44.616Z,1.88
2022-07-28T01:57:47.416Z,2.75
2022-07-28T01:59:50.827Z,4.68
2022-07-28T02:01:53.227Z,3.33
2022-07-28T02:03:57.971Z,3.60
2022-07-28T02:06:02.691Z,6.68
2022-07-28T02:08:06.025Z,6.28
2022-07-28T02:10:09.457Z,4.25
2022-07-28T02:12:13.517Z,5.13
2022-07-28T02:14:27.309Z,3.03
2022-07-28T02:16:30.313Z,2.97
2022-07-28T02:18:33.392Z,4.35
2022-07-28T02:20:35.793Z,6.47
2022-07-28T02:22:39.485Z,8.57
2022-07-28T02:24:43.297Z,3.53
2022-07-28T02:27:04.941Z,2.60
2022-07-28T02:29:27.402Z,6.22
2022-07-28T02:31:44.178Z,3.80
2022-07-28T02:33:59.803Z,4.28
2022-07-28T02:36:07.522Z,4.55
2022-07-28T02:38:35.179Z,3.80
2022-07-28T02:40:40.024Z,4.43
2022-07-28T02:42:44.469Z,5.15
2022-07-28T02:45:06.818Z,5.85
2022-07-28T02:47:12.314Z,3.50
2022-07-28T02:49:22.420Z,2.67
2022-07-28T02:51:28.455Z,5.75
2022-07-28T02:53:30.979Z,2.58
2022-07-28T02:55:33.890Z,5.32
2022-07-28T02:57:37.904Z,5.53
2022-07-28T02:59:40.953Z,5.25
2022-07-28T03:01:43.910Z,2.53
2022-07-28T03:03:48.058Z,3.35
2022-07-28T03:05:50.427Z,8.07
2022-07-28T03:07:56.534Z,5.05
2022-07-28T03:09:59.268Z,5.18
2022-07-28T03:12:00.952Z,4.80
2022-07-28T03:14:02.647Z,3.70
2022-07-28T03:16:05.905Z,3.83
2022-07-28T03:18:07.883Z,3.42
2022-07-28T03:20:10.427Z,5.75
2022-07-28T03:22:12.438Z,12.18
2022-07-28T03:24:14.454Z,1.85
2022-07-28T03:26:32.763Z,8.73
2022-07-28T03:28:36.603Z,4.97
2022-07-28T03:30:42.937Z,4.00
2022-07-28T03:32:48.544Z,5.60
2022-07-28T03:34:52.303Z,2.17
2022-07-28T03:37:01.193Z,3.95
2022-07-28T03:39:05.789Z,3.03
2022-07-28T03:41:10.070Z,8.20
2022-07-28T03:43:12.937Z,4.13
2022-07-28T03:45:17.987Z,3.65
2022-07-28T03:47:23.974Z,6.72
2022-07-28T03:49:25.668Z,3.92
2022-07-28T03:51:29.469Z,5.25
2022-07-28T03:53:31.193Z,8.27
2022-07-28T03:55:32.854Z,2.53
2022-07-28T03:57:34.520Z,8.45
2022-07-28T03:59:36.355Z,2.33
2022-07-28T04:01:39.929Z,4.72
2022-07-28T04:03:43.693Z,4.70
2022-07-28T04:05:46.941Z,3.13
2022-07-28T04:07:48.764Z,3.65
2022-07-28T04:09:50.409Z,3.35
2022-07-28T04:11:52.089Z,3.95
2022-07-28T04:13:53.827Z,5.57
2022-07-28T04:15:55.534Z,2.95
2022-07-28T04:17:57.211Z,6.40
2022-07-28T04:19:58.876Z,2.97
2022-07-28T04:22:00.566Z,4.57
2022-07-28T04:24:02.315Z,5.32
2022-07-28T04:26:04.274Z,5.45
2022-07-28T04:28:06.252Z,5.28
2022-07-28T04:30:13.136Z,6.32
2022-07-28T04:32:14.800Z,1.95
2022-07-28T04:34:17.122Z,5.13
2022-07-28T04:36:18.986Z,4.15
2022-07-28T04:38:20.786Z,4.65
2022-07-28T04:40:22.448Z,4.22
2022-07-28T04:42:24.391Z,1.65
2022-07-28T04:44:26.125Z,6.60
2022-07-28T04:46:27.889Z,4.43
2022-07-28T04:48:29.667Z,6.88
2022-07-28T04:50:32.069Z,4.60
2022-07-28T04:52:33.919Z,4.55
2022-07-28T04:54:37.062Z,3.13
2022-07-28T04:56:38.734Z,4.70
2022-07-28T04:58:40.396Z,3.53
2022-07-28T05:00:45.687Z,3.03
2022-07-28T05:02:49.017Z,3.33
2022-07-28T05:04:50.759Z,5.72
2022-07-28T05:06:52.496Z,5.93
2022-07-28T05:08:54.382Z,2.72
2022-07-28T05:10:56.285Z,14.57
2022-07-28T05:12:58.143Z,9.27
2022-07-28T05:15:00.626Z,12.50
2022-07-28T05:17:02.323Z,10.98
2022-07-28T05:19:04.096Z,6.95
2022-07-28T05:21:05.777Z,5.25
2022-07-28T05:23:08.377Z,7.72
2022-07-28T05:25:28.177Z,6.63
2022-07-28T05:27:29.921Z,10.88
2022-07-28T05:29:46.703Z,6.85
2022-07-28T05:31:49.623Z,9.40
2022-07-28T05:33:51.412Z,3.25
2022-07-28T05:35:59.257Z,5.55
2022-07-28T05:38:00.950Z,2.78
2022-07-28T05:40:08.949Z,3.67
2022-07-28T05:42:10.643Z,3.00
2022-07-28T05:44:12.553Z,4.60
2022-07-28T05:46:14.530Z,3.03
2022-07-28T05:48:22.429Z,4.05
2022-07-28T05:50:25.973Z,5.80
2022-07-28T05:52:28.758Z,2.67
2022-07-28T05:54:30.435Z,6.72
2022-07-28T05:56:32.140Z,4.90
2022-07-28T05:58:33.824Z,2.80
2022-07-28T06:00:35.779Z,2.03
2022-07-28T06:02:38.211Z,6.05
2022-07-28T06:04:39.990Z,7.28
2022-07-28T06:06:41.699Z,5.95
2022-07-28T06:08:44.209Z,1.88
2022-07-28T06:11:04.401Z,5.25
2022-07-28T06:13:06.624Z,1.40
2022-07-28T06:15:12.305Z,5.25
2022-07-28T06:17:15.779Z,3.38
2022-07-28T06:19:17.987Z,2.17
2022-07-28T06:21:22.089Z,1.88
2022-07-28T06:23:24.642Z,1.60
2022-07-28T06:25:29.655Z,1.98
2022-07-28T06:27:31.338Z,2.30
2022-07-28T06:29:33.022Z,2.63
2022-07-28T06:31:35.640Z,2.55
2022-07-28T06:33:37.896Z,1.83
2022-07-28T06:35:44.994Z,1.73
2022-07-28T06:37:53.853Z,3.83
2022-07-28T06:39:56.998Z,3.83
2022-07-28T06:41:58.653Z,1.70
2022-07-28T06:44:00.317Z,1.85
2022-07-28T06:46:03.359Z,1.98
2022-07-28T06:48:07.880Z,2.08
2022-07-28T06:50:24.665Z,2.45
2022-07-28T06:52:28.956Z,1.55
2022-07-28T06:54:30.631Z,2.50
2022-07-28T06:56:32.289Z,1.98
2022-07-28T06:58:34.064Z,3.00
2022-07-28T07:00:35.823Z,1.92
2022-07-28T07:02:41.829Z,1.77
2022-07-28T07:04:43.989Z,1.80
2022-07-28T07:06:45.715Z,2.50
2022-07-28T07:08:48.385Z,4.05
2022-07-28T07:10:50.074Z,1.40
2022-07-28T07:12:51.772Z,2.00
2022-07-28T07:14:54.043Z,2.03
2022-07-28T07:16:55.803Z,3.42
2022-07-28T07:18:57.453Z,3.05
2022-07-28T07:20:59.259Z,3.33
2022-07-28T07:23:00.906Z,1.58
2022-07-28T07:25:13.048Z,1.67
2022-07-28T07:27:14.871Z,2.97
2022-07-28T07:29:16.569Z,2.30
2022-07-28T07:31:18.322Z,1.45
2022-07-28T07:33:20.236Z,2.08
2022-07-28T07:35:21.917Z,1.58
2022-07-28T07:37:24.709Z,1.35
2022-07-28T07:39:26.486Z,1.70
2022-07-28T07:41:28.167Z,1.27
2022-07-28T07:43:29.955Z,1.70
2022-07-28T07:45:32.090Z,3.47
2022-07-28T07:47:34.981Z,1.40
2022-07-28T07:49:45.572Z,4.20
2022-07-28T07:51:47.800Z,1.73
2022-07-28T07:53:49.474Z,1.40
2022-07-28T07:55:51.802Z,1.95
2022-07-28T07:57:53.723Z,1.38
2022-07-28T07:59:55.428Z,1.85
2022-07-28T08:01:57.394Z,1.73
2022-07-28T08:04:01.002Z,1.55
2022-07-28T08:06:02.843Z,1.70
2022-07-28T08:08:05.531Z,2.05
2022-07-28T08:10:07.844Z,1.45
2022-07-28T08:12:09.578Z,2.10
2022-07-28T08:14:11.604Z,1.90
2022-07-28T08:16:13.473Z,1.70
2022-07-28T08:18:15.425Z,2.35
2022-07-28T08:20:17.154Z,1.50
2022-07-28T08:22:18.899Z,1.40
2022-07-28T08:24:32.380Z,1.60
2022-07-28T08:26:35.634Z,1.45
2022-07-28T08:28:37.317Z,1.70
2022-07-28T08:30:38.988Z,1.40
2022-07-28T08:32:41.228Z,1.38
2022-07-28T08:34:42.919Z,1.55
2022-07-28T08:36:44.610Z,2.00
2022-07-28T08:38:52.915Z,1.42
2022-07-28T08:40:57.122Z,1.50
2022-07-28T08:43:13.874Z,2.67
2022-07-28T08:45:17.509Z,1.50
2022-07-28T08:47:20.279Z,1.13
2022-07-28T08:49:22.153Z,1.20
2022-07-28T08:51:27.835Z,1.45
2022-07-28T08:53:31.612Z,1.92
2022-07-28T08:55:34.879Z,2.22
2022-07-28T08:57:42.028Z,2.00
2022-07-28T08:59:45.074Z,1.42
2022-07-28T09:01:48.076Z,1.60
2022-07-28T09:03:51.980Z,2.28
2022-07-28T09:05:54.864Z,2.63
2022-07-28T09:07:58.521Z,1.60
2022-07-28T09:10:03.119Z,1.67
2022-07-28T09:12:05.765Z,1.63
2022-07-28T09:14:07.664Z,1.65
2022-07-28T09:16:09.661Z,2.03
2022-07-28T09:18:11.395Z,2.35
2022-07-28T09:20:13.745Z,1.77
2022-07-28T09:22:15.442Z,1.50
2022-07-28T09:24:35.168Z,1.70
2022-07-28T09:26:36.893Z,2.00
2022-07-28T09:28:55.898Z,1.67
2022-07-28T09:31:06.260Z,1.67
2022-07-28T09:33:42.372Z,1.92
2022-07-28T09:35:43.910Z,1.70
2022-07-28T09:37:45.742Z,1.70
2022-07-28T09:39:48.996Z,2.00
2022-07-28T09:41:57.325Z,1.98
2022-07-28T09:43:59.002Z,1.70
2022-07-28T09:46:12.387Z,1.70
2022-07-28T09:48:14.847Z,2.13
2022-07-28T09:50:21.470Z,1.85
2022-07-28T09:52:32.994Z,2.88
2022-07-28T09:54:40.298Z,1.52
2022-07-28T09:56:44.462Z,1.70
2022-07-28T09:58:54.602Z,2.17
2022-07-28T10:01:13.302Z,1.70
2022-07-28T10:03:25.868Z,1.95
2022-07-28T10:05:41.048Z,1.70
2022-07-28T10:07:50.491Z,2.30
2022-07-28T10:10:02.768Z,2.50
2022-07-28T10:12:38.014Z,2.03
2022-07-28T10:14:39.723Z,2.05
2022-07-28T10:16:52.596Z,2.85
2022-07-28T10:18:56.577Z,1.95
2022-07-28T10:20:58.313Z,1.90
2022-07-28T10:23:09.235Z,3.67
2022-07-28T10:27:15.686Z,2.08
2022-07-28T10:29:20.429Z,1.80
2022-07-28T10:31:32.608Z,1.95
2022-07-28T10:33:36.753Z,2.00
2022-07-28T10:35:54.459Z,1.90
2022-07-28T10:38:03.818Z,1.88
2022-07-28T10:40:10.543Z,1.95
2022-07-28T10:42:12.898Z,2.17
2022-07-28T10:44:14.998Z,1.80
2022-07-28T10:46:17.532Z,2.08
2022-07-28T10:48:21.627Z,1.83
2022-07-28T10:50:26.659Z,1.98
2022-07-28T10:52:46.806Z,1.92
2022-07-28T10:55:22.812Z,2.53
2022-07-28T10:57:25.163Z,2.00
2022-07-28T10:59:58.173Z,2.08
2022-07-28T11:02:00.318Z,1.90
2022-07-28T11:04:02.588Z,1.80
2022-07-28T11:06:23.926Z,2.15
2022-07-28T11:08:28.967Z,2.38
2022-07-28T11:10:43.600Z,2.25
2022-07-28T11:12:49.271Z,2.00
2022-07-28T11:14:51.400Z,1.95
2022-07-28T11:17:05.373Z,2.85
2022-07-28T11:19:36.596Z,2.50
2022-07-28T11:21:39.592Z,2.20
2022-07-28T11:23:53.717Z,1.95
2022-07-28T11:26:37.285Z,2.00
2022-07-28T11:28:57.540Z,2.45
2022-07-28T11:30:59.419Z,1.90
2022-07-28T11:33:02.758Z,1.92
2022-07-28T11:35:07.468Z,2.22
2022-07-28T11:37:10.243Z,1.90
2022-07-28T11:39:25.043Z,2.17
2022-07-28T11:41:30.102Z,2.03
2022-07-28T11:43:36.362Z,2.00
2022-07-28T11:45:43.230Z,2.13
2022-07-28T11:48:17.931Z,2.10
2022-07-28T11:50:19.864Z,2.00
2022-07-28T11:52:21.662Z,2.08
2022-07-28T11:54:25.430Z,1.63
2022-07-28T11:56:29.318Z,1.80
2022-07-28T11:58:31.125Z,2.22
2022-07-28T12:00:32.929Z,2.00
2022-07-28T12:02:35.394Z,2.60
2022-07-28T12:04:37.236Z,2.38
2022-07-28T12:06:42.557Z,2.15
2022-07-28T12:09:13.881Z,2.30
2022-07-28T12:11:15.679Z,2.20
2022-07-28T12:13:26.142Z,2.22
2022-07-28T12:15:28.665Z,2.25
2022-07-28T12:17:34.047Z,1.85
2022-07-28T12:19:36.126Z,2.08
2022-07-28T12:21:46.618Z,2.58
2022-07-28T12:23:53.915Z,2.00
2022-07-28T12:25:55.572Z,1.80
2022-07-28T12:27:58.256Z,1.90
2022-07-28T12:30:04.576Z,2.22
2022-07-28T12:32:09.791Z,2.10
2022-07-28T12:34:13.657Z,1.92
2022-07-28T12:36:18.833Z,1.88
2022-07-28T12:38:22.757Z,1.90
2022-07-28T12:40:29.022Z,2.20
2022-07-28T12:42:32.131Z,1.95
2022-07-28T12:44:40.792Z,2.20
2022-07-28T12:46:48.883Z,1.90
2022-07-28T12:48:51.610Z,2.22
2022-07-28T12:50:53.345Z,2.00
2022-07-28T12:53:11.541Z,1.95
2022-07-28T12:55:27.047Z,2.30
2022-07-28T12:57:50.938Z,2.10
2022-07-28T12:59:53.128Z,1.98
2022-07-28T13:01:58.366Z,1.90
2022-07-28T13:04:00.488Z,2.25
2022-07-28T13:06:10.933Z,2.00
2022-07-28T13:08:12.652Z,3.65
2022-07-28T13:10:15.231Z,1.80
2022-07-28T13:12:22.211Z,1.88
2022-07-28T13:14:44.298Z,2.03
2022-07-28T13:16:57.596Z,2.35
2022-07-28T13:19:03.945Z,2.45
2022-07-28T13:21:05.732Z,2.00
2022-07-28T13:23:07.396Z,2.30
2022-07-28T13:25:11.153Z,2.25
2022-07-28T13:27:12.854Z,1.83
2022-07-28T13:29:15.041Z,2.33
2022-07-28T13:31:16.778Z,2.10
2022-07-28T13:33:18.515Z,2.05
2022-07-28T13:35:23.056Z,1.80
2022-07-28T13:37:24.807Z,1.88
2022-07-28T13:39:26.505Z,2.25
2022-07-28T13:41:28.255Z,1.85
2022-07-28T13:43:50.396Z,2.10
2022-07-28T13:45:57.018Z,2.45
2022-07-28T13:48:02.532Z,2.00
2022-07-28T13:50:04.555Z,2.45
2022-07-28T13:52:12.808Z,2.00
2022-07-28T13:54:15.414Z,2.03
2022-07-28T13:56:20.313Z,1.80
2022-07-28T13:58:22.852Z,2.92
2022-07-28T14:00:24.730Z,1.70
2022-07-28T14:02:26.742Z,2.00
2022-07-28T14:04:28.544Z,1.92
2022-07-28T14:06:30.339Z,2.10
2022-07-28T14:08:32.836Z,2.10
2022-07-28T14:10:35.752Z,2.15
2022-07-28T14:12:37.816Z,1.90
2022-07-28T14:14:39.530Z,1.90
2022-07-28T14:16:49.868Z,2.30
2022-07-28T14:18:51.638Z,2.45
2022-07-28T14:20:53.296Z,1.70
2022-07-28T14:22:55.082Z,4.05
2022-07-28T14:24:56.788Z,6.95
2022-07-28T14:26:58.440Z,4.95
2022-07-28T14:29:00.168Z,5.03
2022-07-28T14:31:02.128Z,4.13
2022-07-28T14:33:06.220Z,2.55
2022-07-28T14:35:08.794Z,2.30
2022-07-28T14:37:10.545Z,3.15
2022-07-28T14:39:12.831Z,3.00
2022-07-28T14:41:14.979Z,4.90
2022-07-28T14:43:16.816Z,5.60
2022-07-28T14:45:18.561Z,2.45
2022-07-28T14:47:22.160Z,2.05
2022-07-28T14:49:24.977Z,4.07
2022-07-28T14:51:26.746Z,2.47
2022-07-28T14:53:28.425Z,2.65
2022-07-28T14:55:30.526Z,2.30
2022-07-28T14:57:51.932Z,2.78
2022-07-28T14:59:54.737Z,3.00
2022-07-28T15:01:56.526Z,2.35
2022-07-28T15:03:58.327Z,2.17
2022-07-28T15:06:01.617Z,2.53
2022-07-28T15:08:03.513Z,3.30
2022-07-28T15:10:06.262Z,2.95
2022-07-28T15:12:08.273Z,2.28
2022-07-28T15:14:09.913Z,2.15
2022-07-28T15:16:11.655Z,8.15
2022-07-28T15:18:13.425Z,13.90
2022-07-28T15:20:15.251Z,31.73
2022-07-28T15:22:16.960Z,35.08
2022-07-28T15:24:19.287Z,48.40
2022-07-28T15:26:20.979Z,43.58
2022-07-28T15:28:22.645Z,25.35
2022-07-28T15:30:24.412Z,33.67
2022-07-28T15:32:28.284Z,39.08
2022-07-28T15:34:30.257Z,42.33
2022-07-28T15:36:34.898Z,61.15
2022-07-28T15:38:37.347Z,36.75
2022-07-28T15:40:39.092Z,30.45
2022-07-28T15:42:40.771Z,58.20
2022-07-28T15:44:42.453Z,35.13
2022-07-28T15:46:44.312Z,69.60
2022-07-28T15:48:48.504Z,37.33
2022-07-28T15:50:50.315Z,54.47
2022-07-28T15:52:52.076Z,58.00
2022-07-28T15:54:53.784Z,48.10
2022-07-28T15:56:55.541Z,47.95
2022-07-28T15:58:58.136Z,40.30
2022-07-28T16:01:01.959Z,65.03
2022-07-28T16:03:04.429Z,43.72
2022-07-28T16:05:06.454Z,45.35
2022-07-28T16:07:20.036Z,35.50
2022-07-28T16:09:24.333Z,26.05
2022-07-28T16:11:46.487Z,20.08
2022-07-28T16:13:48.211Z,21.90
2022-07-28T16:15:50.367Z,12.65
2022-07-28T16:17:52.773Z,15.73
2022-07-28T16:19:54.574Z,13.00
2022-07-28T16:21:56.274Z,18.27
2022-07-28T16:23:57.925Z,13.55
2022-07-28T16:25:59.693Z,11.73
2022-07-28T16:28:04.059Z,15.55
2022-07-28T16:30:06.254Z,14.65
2022-07-28T16:32:07.923Z,27.63
2022-07-28T16:34:11.090Z,23.88
2022-07-28T16:36:12.792Z,33.30
2022-07-28T16:38:14.628Z,18.85
2022-07-28T16:40:16.584Z,13.43
2022-07-28T16:42:18.418Z,23.50
2022-07-28T16:44:20.481Z,11.77
2022-07-28T16:46:24.130Z,10.18
2022-07-28T16:48:25.842Z,21.02
2022-07-28T16:50:27.559Z,13.80
2022-07-28T16:52:29.256Z,17.25
2022-07-28T16:54:30.948Z,18.80
2022-07-28T16:56:33.069Z,19.42
2022-07-28T16:58:34.788Z,7.47
2022-07-28T17:00:36.522Z,15.95
2022-07-28T17:02:38.322Z,25.20
2022-07-28T17:04:40.073Z,12.23
2022-07-28T17:06:41.868Z,21.58
2022-07-28T17:08:43.691Z,12.98
2022-07-28T17:10:46.958Z,11.85
2022-07-28T17:12:50.049Z,12.00
2022-07-28T17:14:52.089Z,23.45
2022-07-28T17:16:53.724Z,26.20
2022-07-28T17:18:55.486Z,14.77
2022-07-28T17:20:57.222Z,20.75
2022-07-28T17:22:58.931Z,31.52
2022-07-28T17:25:00.603Z,24.85
2022-07-28T17:27:36.769Z,25.15
2022-07-28T17:29:23.989Z,23.42
2022-07-28T17:31:25.840Z,18.60
2022-07-28T17:33:27.809Z,12.63
2022-07-28T17:35:35.296Z,13.85
2022-07-28T17:37:37.380Z,7.05
2022-07-28T17:39:39.035Z,4.93
2022-07-28T17:41:40.774Z,13.57
2022-07-28T17:43:45.663Z,6.15
2022-07-28T17:45:47.886Z,26.15
2022-07-28T17:47:49.562Z,10.88
2022-07-28T17:49:51.846Z,5.60
2022-07-28T17:51:54.543Z,6.68
2022-07-28T17:53:56.232Z,5.82
2022-07-28T17:56:01.040Z,7.72
2022-07-28T17:58:13.155Z,8.95
2022-07-28T18:00:15.167Z,11.63
2022-07-28T18:02:20.112Z,5.70
2022-07-28T18:04:23.343Z,7.18
2022-07-28T18:06:25.115Z,5.65
2022-07-28T18:08:27.296Z,6.20
2022-07-28T18:10:29.018Z,4.50
2022-07-28T18:12:30.720Z,6.50
2022-07-28T18:14:32.441Z,4.03
2022-07-28T18:16:34.616Z,4.93
2022-07-28T18:18:36.521Z,6.22
2022-07-28T18:20:39.577Z,12.25
2022-07-28T18:22:41.255Z,19.88
2022-07-28T18:24:42.930Z,7.95
2022-07-28T18:26:45.855Z,6.85
2022-07-28T18:28:47.518Z,8.00
2022-07-28T18:30:49.326Z,3.67
2022-07-28T18:32:51.604Z,7.95
2022-07-28T18:34:53.266Z,6.68
2022-07-28T18:36:54.962Z,8.43
2022-07-28T18:38:56.766Z,8.57
2022-07-28T18:40:58.468Z,4.93
2022-07-28T18:43:00.204Z,7.72
2022-07-28T18:45:02.159Z,15.55
2022-07-28T18:47:04.364Z,3.45
2022-07-28T18:49:06.092Z,8.50
2022-07-28T18:51:07.853Z,14.00
2022-07-28T18:53:09.532Z,8.13
2022-07-28T18:55:12.267Z,5.72
2022-07-28T18:57:13.947Z,5.72
2022-07-28T18:59:15.747Z,4.15
2022-07-28T19:01:17.508Z,6.40
2022-07-28T19:03:19.294Z,7.28
2022-07-28T19:05:21.037Z,7.93
2022-07-28T19:07:22.773Z,4.50
2022-07-28T19:09:24.501Z,6.40
2022-07-28T19:11:26.335Z,4.63
2022-07-28T19:13:27.993Z,7.47
2022-07-28T19:15:29.914Z,7.60
2022-07-28T19:17:31.655Z,6.55
2022-07-28T19:19:33.666Z,10.65
2022-07-28T19:21:35.517Z,6.43
2022-07-28T19:23:37.224Z,5.97
2022-07-28T19:25:39.529Z,4.80
2022-07-28T19:27:41.254Z,10.25
2022-07-28T19:29:43.072Z,5.15
2022-07-28T19:31:44.733Z,5.50
2022-07-28T19:33:46.979Z,4.90
2022-07-28T19:35:48.732Z,5.63
2022-07-28T19:37:50.992Z,3.75
2022-07-28T19:39:53.153Z,5.93
2022-07-28T19:41:54.812Z,3.75
2022-07-28T19:43:57.327Z,3.58
2022-07-28T19:46:00.080Z,6.20
2022-07-28T19:48:03.600Z,8.30
2022-07-28T19:50:05.782Z,12.32
2022-07-28T19:52:08.635Z,8.15
2022-07-28T19:54:13.184Z,8.57
2022-07-28T19:56:17.446Z,6.15
2022-07-28T19:58:20.017Z,9.88
2022-07-28T20:00:23.032Z,12.45
2022-07-28T20:02:24.748Z,9.00
2022-07-28T20:04:26.501Z,11.13
2022-07-28T20:06:28.180Z,8.52
2022-07-28T20:08:29.896Z,10.18
2022-07-28T20:10:31.828Z,9.18
2022-07-28T20:12:36.632Z,11.93
2022-07-28T20:14:38.753Z,8.55
2022-07-28T20:16:40.685Z,9.52
2022-07-28T20:18:42.614Z,9.77
2022-07-28T20:20:44.305Z,9.95
2022-07-28T20:22:47.228Z,9.35
2022-07-28T20:24:49.175Z,7.50
2022-07-28T20:26:50.945Z,5.88
2022-07-28T20:28:54.079Z,10.45
2022-07-28T20:30:55.888Z,25.25
2022-07-28T20:32:57.766Z,11.48
2022-07-28T20:34:59.493Z,8.13
2022-07-28T20:37:01.155Z,9.57
2022-07-28T20:39:15.733Z,5.63
2022-07-28T20:41:24.874Z,6.32
2022-07-28T20:43:36.344Z,8.95
2022-07-28T20:45:39.197Z,7.30
2022-07-28T20:47:40.982Z,7.82
2022-07-28T20:49:43.383Z,5.85
2022-07-28T20:51:48.697Z,4.60
2022-07-28T20:53:52.752Z,7.05
2022-07-28T20:55:54.495Z,6.60
2022-07-28T20:57:57.421Z,4.82
2022-07-28T20:59:59.249Z,4.43
2022-07-28T21:02:01.112Z,5.38
2022-07-28T21:04:02.969Z,5.85
2022-07-28T21:06:04.801Z,4.82
2022-07-28T21:08:16.135Z,3.40
2022-07-28T21:10:18.972Z,5.15
2022-07-28T21:12:21.397Z,4.07
2022-07-28T21:14:23.098Z,3.97
2022-07-28T21:16:24.927Z,5.95
2022-07-28T21:18:26.591Z,5.60
2022-07-28T21:20:28.262Z,3.47
2022-07-28T21:22:29.972Z,3.63
2022-07-28T21:24:31.708Z,3.80
2022-07-28T21:26:33.400Z,3.50
2022-07-28T21:28:53.573Z,6.70
2022-07-28T21:30:55.329Z,4.97
2022-07-28T21:32:57.246Z,3.28
2022-07-28T21:34:58.949Z,3.55
2022-07-28T21:37:01.009Z,6.47
2022-07-28T21:39:04.765Z,5.18
2022-07-28T21:41:06.464Z,5.47
2022-07-28T21:43:08.185Z,5.43
2022-07-28T21:45:11.322Z,5.15
2022-07-28T21:47:13.188Z,8.30
2022-07-28T21:49:14.975Z,5.00
2022-07-28T21:51:20.597Z,6.15
2022-07-28T21:53:23.549Z,5.65
2022-07-28T21:55:25.283Z,6.55
2022-07-28T21:57:26.948Z,6.38
2022-07-28T21:59:28.610Z,5.15
2022-07-28T22:01:30.392Z,4.07
2022-07-28T22:03:32.243Z,5.22
2022-07-28T22:05:34.026Z,6.18
2022-07-28T22:07:35.692Z,5.32
2022-07-28T22:09:38.111Z,5.22
2022-07-28T22:11:39.869Z,7.20
2022-07-28T22:13:41.587Z,3.88
2022-07-28T22:15:43.265Z,9.18
2022-07-28T22:17:44.970Z,5.60
2022-07-28T22:19:46.673Z,4.63
2022-07-28T22:21:48.338Z,3.80
2022-07-28T22:23:50.017Z,5.20
2022-07-28T22:25:51.714Z,3.40
2022-07-28T22:27:54.413Z,4.60
2022-07-28T22:29:56.135Z,3.83
2022-07-28T22:31:59.478Z,3.50
2022-07-28T22:34:01.509Z,5.25
2022-07-28T22:36:03.372Z,3.50
2022-07-28T22:38:05.242Z,3.70
2022-07-28T22:40:07.791Z,5.88
2022-07-28T22:42:09.516Z,3.53
2022-07-28T22:44:11.210Z,6.53
2022-07-28T22:46:13.132Z,3.42
2022-07-28T22:48:14.905Z,5.03
2022-07-28T22:50:16.613Z,4.10
2022-07-28T22:52:18.259Z,4.18
2022-07-28T22:54:19.939Z,5.10
2022-07-28T22:56:21.691Z,3.92
2022-07-28T22:58:23.361Z,3.80
2022-07-28T23:00:25.124Z,4.15
2022-07-28T23:02:26.925Z,5.72
2022-07-28T23:04:28.605Z,4.78
2022-07-28T23:06:30.444Z,3.40
2022-07-28T23:08:32.211Z,4.22
2022-07-28T23:10:34.535Z,6.57
2022-07-28T23:12:36.449Z,3.58
2022-07-28T23:14:38.483Z,3.47
2022-07-28T23:16:40.268Z,3.95
2022-07-28T23:18:44.087Z,3.20
2022-07-28T23:20:45.862Z,6.43
2022-07-28T23:22:47.528Z,3.63
2022-07-28T23:24:49.351Z,4.45
2022-07-28T23:26:51.190Z,9.73
2022-07-28T23:28:52.860Z,4.25
2022-07-28T23:30:54.717Z,4.60
2022-07-28T23:32:56.478Z,7.40
2022-07-28T23:34:58.216Z,5.35
2022-07-28T23:36:59.956Z,3.47
2022-07-28T23:39:01.643Z,5.28
2022-07-28T23:41:04.151Z,4.05
2022-07-28T23:43:05.949Z,4.20
2022-07-28T23:45:08.209Z,3.40
2022-07-28T23:47:10.014Z,5.68
2022-07-28T23:49:11.794Z,3.63
2022-07-28T23:51:16.287Z,3.42
2022-07-28T23:53:17.974Z,5.40
2022-07-28T23:55:19.775Z,4.97
2022-07-28T23:57:21.443Z,8.25
2022-07-28T23:59:26.252Z,5.18
